Time;durP1;ratioP1;P1;durP2;ratioP2;P2;SDS_P1;SDS_P2;PMS_P1;PMS_P2;Temp;Humidity;BMP_temperature;BMP_pressure;BME280_temperature;BME280_humidity;BME280_pressure;Samples;Min_cycle;Max_cycle;Signal;HPM_P1;HPM_P2
2022/06/06 00:02:21;;;;;;;5.90;2.90;;;21.40;64.20;;;;;;4431812;32;20082;-68
2022/06/06 00:04:47;;;;;;;5.90;2.80;;;21.40;64.20;;;;;;4431405;32;20137;-68
2022/06/06 00:07:13;;;;;;;3.25;2.42;;;21.40;64.30;;;;;;4431642;32;20160;-68
2022/06/06 00:09:39;;;;;;;4.30;2.47;;;21.40;64.20;;;;;;4431584;32;20268;-68
2022/06/06 00:12:06;;;;;;;5.15;2.60;;;21.40;64.20;;;;;;4431668;32;20084;-68
2022/06/06 00:14:32;;;;;;;5.53;2.72;;;21.40;64.20;;;;;;4431030;32;20079;-68
2022/06/06 00:16:59;;;;;;;5.82;2.80;;;21.40;64.10;;;;;;4431595;32;20324;-68
2022/06/06 00:19:25;;;;;;;4.95;2.97;;;21.40;64.10;;;;;;4431427;32;20078;-68
2022/06/06 00:21:52;;;;;;;6.20;2.45;;;21.40;64.10;;;;;;4431514;32;20136;-68
2022/06/06 00:24:18;;;;;;;3.97;2.30;;;21.40;64.20;;;;;;4431261;32;20082;-68
2022/06/06 00:26:44;;;;;;;5.28;2.97;;;21.40;64.20;;;;;;4431221;32;20515;-68
2022/06/06 00:29:14;;;;;;;4.57;2.50;;;21.40;64.10;;;;;;4431455;32;20079;-68
2022/06/06 00:37:12;;;;;;;4.13;2.58;;;21.40;64.10;;;;;;4431431;32;20158;-68
2022/06/06 00:39:38;;;;;;;4.40;2.38;;;21.40;64.10;;;;;;4431222;32;20165;-69
2022/06/06 00:42:12;;;;;;;4.03;2.40;;;21.40;64.10;;;;;;4431189;32;20078;-68
2022/06/06 00:44:40;;;;;;;4.13;2.67;;;21.40;64.00;;;;;;4431279;32;20102;-68
2022/06/06 00:47:17;;;;;;;5.35;2.63;;;21.40;64.10;;;;;;4430840;32;20097;-68
2022/06/06 00:49:47;;;;;;;3.88;2.30;;;21.40;64.00;;;;;;4430967;32;20164;-68
2022/06/06 00:52:26;;;;;;;4.13;2.35;;;21.40;64.00;;;;;;4430986;32;20081;-68
2022/06/06 00:54:56;;;;;;;5.30;2.30;;;21.40;64.10;;;;;;4431040;32;20070;-68
2022/06/06 00:57:31;;;;;;;3.92;2.38;;;21.30;63.90;;;;;;4430767;32;20088;-68
2022/06/06 01:00:00;;;;;;;3.88;2.30;;;21.30;63.90;;;;;;4430818;32;20059;-68
2022/06/06 01:02:26;;;;;;;4.70;2.10;;;21.30;63.90;;;;;;4431143;32;20204;-68
2022/06/06 01:04:55;;;;;;;4.15;2.22;;;21.30;63.90;;;;;;4431130;32;20156;-68
2022/06/06 01:07:21;;;;;;;3.58;2.35;;;21.30;63.90;;;;;;4430555;32;20519;-68
2022/06/06 01:09:47;;;;;;;3.92;2.55;;;21.30;64.00;;;;;;4430792;32;20496;-68
2022/06/06 01:12:17;;;;;;;2.97;2.30;;;21.30;64.00;;;;;;4430553;32;20514;-68
2022/06/06 01:15:07;;;;;;;3.28;2.30;;;21.30;64.00;;;;;;4430651;32;20078;-68
2022/06/06 01:17:57;;;;;;;2.65;2.10;;;21.30;63.80;;;;;;4430754;32;20216;-68
2022/06/06 01:20:42;;;;;;;4.18;1.92;;;21.30;63.90;;;;;;4430220;32;20177;-68
2022/06/06 01:23:27;;;;;;;3.20;2.47;;;21.30;63.80;;;;;;4430741;32;20085;-68
2022/06/06 01:26:23;;;;;;;4.15;2.38;;;21.30;63.70;;;;;;4430327;32;20422;-68
2022/06/06 01:28:54;;;;;;;4.35;2.45;;;21.30;63.80;;;;;;4430645;32;20188;-68
2022/06/06 01:31:54;;;;;;;5.35;2.45;;;21.30;63.90;;;;;;4430613;32;20393;-68
2022/06/06 01:34:26;;;;;;;3.53;2.55;;;21.30;63.80;;;;;;4430423;32;20144;-68
2022/06/06 01:36:54;;;;;;;4.55;2.40;;;21.30;63.90;;;;;;4430652;32;20377;-68
2022/06/06 01:39:22;;;;;;;2.95;2.10;;;21.30;63.90;;;;;;4430343;32;20082;-68
2022/06/06 01:42:05;;;;;;;3.38;2.38;;;21.30;64.00;;;;;;4430075;32;20427;-68
2022/06/06 01:44:57;;;;;;;5.10;2.55;;;21.30;63.90;;;;;;4430333;32;20078;-68
2022/06/06 01:47:51;;;;;;;3.40;2.20;;;21.30;63.70;;;;;;4416182;32;20066;-68
2022/06/06 01:50:20;;;;;;;2.42;2.10;;;21.30;63.80;;;;;;4421269;32;20078;-68
2022/06/06 01:52:59;;;;;;;3.13;2.10;;;21.30;63.90;;;;;;4430248;32;20181;-68
2022/06/06 01:55:26;;;;;;;4.18;2.40;;;21.30;63.80;;;;;;4429875;32;20132;-68
2022/06/06 01:57:55;;;;;;;4.20;2.30;;;21.30;63.80;;;;;;4416400;32;20082;-68
2022/06/06 02:00:21;;;;;;;3.42;2.22;;;21.30;63.90;;;;;;4430063;32;20075;-68
2022/06/06 02:02:48;;;;;;;3.42;2.05;;;21.30;63.90;;;;;;4430028;32;20113;-68
2022/06/06 02:05:15;;;;;;;3.30;2.05;;;21.20;63.80;;;;;;4430007;32;20097;-68
2022/06/06 02:07:42;;;;;;;4.13;2.30;;;21.30;63.80;;;;;;4429954;32;20078;-68
2022/06/06 02:10:10;;;;;;;3.95;1.80;;;21.30;63.90;;;;;;4429903;32;20070;-68
2022/06/06 02:12:37;;;;;;;3.70;2.40;;;21.30;63.90;;;;;;4429347;32;20079;-68
2022/06/06 02:15:05;;;;;;;3.85;2.20;;;21.20;63.80;;;;;;4429821;32;20496;-68
2022/06/06 02:17:31;;;;;;;3.47;1.92;;;21.30;63.80;;;;;;4429815;32;20649;-68
2022/06/06 02:19:57;;;;;;;3.72;2.25;;;21.20;63.80;;;;;;4429734;32;20415;-68
2022/06/06 02:22:23;;;;;;;4.13;1.95;;;21.30;63.80;;;;;;4415992;32;20070;-68
2022/06/06 02:24:49;;;;;;;2.95;2.05;;;21.20;63.80;;;;;;4429511;32;20122;-68
2022/06/06 02:27:16;;;;;;;2.22;1.90;;;21.20;63.80;;;;;;4429790;32;20078;-68
2022/06/06 02:29:43;;;;;;;3.67;2.00;;;21.20;63.90;;;;;;4429760;32;20085;-68
2022/06/06 02:32:11;;;;;;;4.07;2.40;;;21.20;63.90;;;;;;4429454;32;20126;-68
2022/06/06 02:34:37;;;;;;;3.83;2.00;;;21.20;63.90;;;;;;4429601;32;20385;-68
2022/06/06 02:37:04;;;;;;;2.80;2.13;;;21.20;63.90;;;;;;4429686;32;20220;-68
2022/06/06 02:39:30;;;;;;;2.35;2.05;;;21.20;63.90;;;;;;4429716;32;20070;-68
2022/06/06 02:41:56;;;;;;;2.80;1.88;;;21.20;63.80;;;;;;4429716;32;20073;-69
2022/06/06 02:44:23;;;;;;;4.03;2.30;;;21.20;63.80;;;;;;4429624;32;20227;-68
2022/06/06 02:46:49;;;;;;;3.15;1.73;;;21.20;63.90;;;;;;4429858;32;20110;-68
2022/06/06 02:49:16;;;;;;;5.57;2.30;;;21.20;63.80;;;;;;4429652;32;20232;-68
2022/06/06 02:51:42;;;;;;;2.90;1.92;;;21.20;63.90;;;;;;4429552;32;20067;-68
2022/06/06 02:54:08;;;;;;;4.47;1.88;;;21.20;63.80;;;;;;4415692;32;20458;-68
2022/06/06 02:56:34;;;;;;;3.50;2.40;;;21.20;63.80;;;;;;4429590;32;20086;-68
2022/06/06 02:59:03;;;;;;;3.17;1.92;;;21.20;63.80;;;;;;4429559;32;20059;-68
2022/06/06 03:01:29;;;;;;;3.80;2.17;;;21.20;63.90;;;;;;4429504;32;20176;-68
2022/06/06 03:03:55;;;;;;;2.25;1.85;;;21.20;63.80;;;;;;4429554;32;20205;-68
2022/06/06 03:06:43;;;;;;;3.33;1.75;;;21.20;63.90;;;;;;4429433;32;20086;-68
2022/06/06 03:09:57;;;;;;;3.03;1.70;;;21.20;63.90;;;;;;4429768;32;20114;-69
2022/06/06 03:13:03;;;;;;;2.33;1.70;;;21.20;63.70;;;;;;4367209;32;20209;-68
2022/06/06 03:21:41;;;;;;;2.38;1.70;;;21.10;63.70;;;;;;4429707;32;20208;-68
2022/06/06 03:24:17;;;;;;;3.67;1.95;;;21.20;63.80;;;;;;4429601;32;20094;-68
2022/06/06 03:27:15;;;;;;;3.50;1.60;;;21.10;63.70;;;;;;4432479;32;20159;-68
2022/06/06 03:30:03;;;;;;;2.35;1.73;;;21.20;63.60;;;;;;4431992;32;20164;-68
2022/06/06 03:32:35;;;;;;;3.13;1.88;;;21.10;63.80;;;;;;4432401;32;20114;-68
2022/06/06 03:35:11;;;;;;;2.60;1.70;;;21.10;63.80;;;;;;4431833;32;20093;-68
2022/06/06 03:37:54;;;;;;;4.57;1.92;;;21.10;63.70;;;;;;4432041;32;20086;-68
2022/06/06 03:40:37;;;;;;;3.75;2.15;;;21.10;63.70;;;;;;4432245;32;20125;-68
2022/06/06 03:43:24;;;;;;;3.70;1.73;;;21.10;63.80;;;;;;4432157;32;20641;-68
2022/06/06 03:46:17;;;;;;;3.05;1.85;;;21.10;63.80;;;;;;4432123;32;20129;-68
2022/06/06 03:49:01;;;;;;;2.70;1.75;;;21.10;63.70;;;;;;4431753;32;20551;-68
2022/06/06 03:51:49;;;;;;;2.72;1.92;;;21.10;63.60;;;;;;4432562;32;20256;-68
2022/06/06 03:54:23;;;;;;;5.97;1.92;;;21.10;63.60;;;;;;4431953;32;20169;-68
2022/06/06 03:57:11;;;;;;;3.05;1.77;;;21.10;63.80;;;;;;4431996;32;20110;-68
2022/06/06 03:59:40;;;;;;;3.65;1.75;;;21.10;63.70;;;;;;4432211;32;20098;-68
2022/06/06 04:02:07;;;;;;;2.13;1.63;;;21.10;63.80;;;;;;4432076;32;20172;-69
2022/06/06 04:04:34;;;;;;;2.83;1.83;;;21.10;63.70;;;;;;4432063;32;20070;-68
2022/06/06 04:07:02;;;;;;;3.20;1.85;;;21.10;63.70;;;;;;4431432;32;20216;-68
2022/06/06 04:09:29;;;;;;;1.63;1.48;;;21.10;63.70;;;;;;4431814;32;20082;-68
2022/06/06 04:12:26;;;;;;;2.75;1.50;;;21.10;63.80;;;;;;4431406;32;20165;-68
2022/06/06 04:15:03;;;;;;;2.28;1.50;;;21.10;63.70;;;;;;4431292;32;20106;-68
2022/06/06 04:17:39;;;;;;;3.42;1.77;;;21.10;63.80;;;;;;4431624;32;20082;-68
2022/06/06 04:20:23;;;;;;;2.70;1.50;;;21.10;63.80;;;;;;4431551;32;20535;-68
2022/06/06 04:22:55;;;;;;;1.77;1.50;;;21.10;63.70;;;;;;4431660;32;20122;-68
2022/06/06 04:25:34;;;;;;;2.05;1.70;;;21.10;63.70;;;;;;4431223;32;20393;-68
2022/06/06 04:28:18;;;;;;;3.72;1.83;;;21.10;63.70;;;;;;4431545;32;20124;-68
2022/06/06 04:30:44;;;;;;;2.03;1.80;;;21.10;63.70;;;;;;4431640;32;20093;-69
2022/06/06 04:33:12;;;;;;;2.20;1.50;;;21.10;63.70;;;;;;4431088;32;20095;-68
2022/06/06 04:36:09;;;;;;;1.83;1.38;;;21.10;63.70;;;;;;4431242;32;20093;-68
2022/06/06 04:38:35;;;;;;;1.80;1.48;;;21.10;63.70;;;;;;4431422;32;20075;-68
2022/06/06 04:41:32;;;;;;;2.88;1.50;;;21.10;63.70;;;;;;4431020;32;20081;-68
2022/06/06 04:44:37;;;;;;;1.95;1.40;;;21.10;63.60;;;;;;4430534;32;20176;-68
2022/06/06 04:47:13;;;;;;;2.13;1.45;;;21.10;63.60;;;;;;4431281;32;20421;-68
2022/06/06 04:49:39;;;;;;;2.53;1.45;;;21.10;63.80;;;;;;4431315;32;20085;-68
2022/06/06 04:52:05;;;;;;;2.50;1.45;;;21.00;63.70;;;;;;4431349;32;20078;-68
2022/06/06 04:54:33;;;;;;;2.05;1.35;;;21.00;63.70;;;;;;4431043;32;20131;-68
2022/06/06 04:57:01;;;;;;;2.40;1.70;;;21.10;63.70;;;;;;4431040;32;20189;-68
2022/06/06 04:59:28;;;;;;;2.00;1.52;;;21.00;63.70;;;;;;4430998;32;20101;-68
2022/06/06 05:01:57;;;;;;;2.90;1.58;;;21.00;63.60;;;;;;4430958;32;20082;-68
2022/06/06 05:04:23;;;;;;;2.25;1.55;;;21.00;63.70;;;;;;4430696;32;20109;-68
2022/06/06 05:06:56;;;;;;;2.47;1.70;;;21.00;63.70;;;;;;4430911;32;20106;-68
2022/06/06 05:09:37;;;;;;;2.15;1.50;;;21.00;63.70;;;;;;4430953;32;20078;-68
2022/06/06 05:12:17;;;;;;;1.92;1.35;;;21.00;63.70;;;;;;4430585;32;20412;-68
2022/06/06 05:14:55;;;;;;;1.95;1.23;;;21.00;63.80;;;;;;4430562;32;20082;-68
2022/06/06 05:17:26;;;;;;;2.13;1.33;;;21.00;63.70;;;;;;4430363;32;20074;-68
2022/06/06 05:20:18;;;;;;;1.95;1.45;;;21.00;63.70;;;;;;4430284;32;20093;-68
2022/06/06 05:23:11;;;;;;;1.95;1.40;;;21.00;63.60;;;;;;4406959;32;20321;-68
2022/06/06 05:26:11;;;;;;;2.73;1.40;;;21.00;63.50;;;;;;4431238;32;20140;-68
2022/06/06 05:29:11;;;;;;;2.35;1.42;;;21.00;63.70;;;;;;4430887;32;20121;-68
2022/06/06 05:31:48;;;;;;;1.88;1.65;;;21.00;63.60;;;;;;4430348;32;20086;-68
2022/06/06 05:34:26;;;;;;;1.98;1.40;;;21.00;63.70;;;;;;4430536;32;20527;-68
2022/06/06 05:36:57;;;;;;;1.50;1.30;;;21.00;63.70;;;;;;4430977;32;20089;-68
2022/06/06 05:39:38;;;;;;;1.63;1.33;;;21.00;63.60;;;;;;4416586;32;20216;-68
2022/06/06 05:42:19;;;;;;;1.95;1.50;;;21.00;63.50;;;;;;4430393;32;20160;-69
2022/06/06 05:45:13;;;;;;;1.95;1.30;;;21.00;63.60;;;;;;4429986;32;20393;-68
2022/06/06 05:47:49;;;;;;;1.88;1.17;;;21.00;63.70;;;;;;4429796;32;20201;-68
2022/06/06 05:50:40;;;;;;;1.25;1.15;;;21.00;63.70;;;;;;4430414;32;20066;-68
2022/06/06 05:53:44;;;;;;;1.95;1.20;;;21.00;63.50;;;;;;4430194;32;20092;-68
2022/06/06 05:56:18;;;;;;;1.38;1.27;;;20.90;63.30;;;;;;4430253;32;20120;-68
2022/06/06 05:59:14;;;;;;;2.90;1.35;;;20.90;63.50;;;;;;4430094;32;20419;-68
2022/06/06 06:02:12;;;;;;;3.38;1.60;;;20.90;63.50;;;;;;4429789;32;20216;-68
2022/06/06 06:04:53;;;;;;;2.83;1.48;;;21.00;63.60;;;;;;4395983;32;20093;-68
2022/06/06 06:07:35;;;;;;;1.23;1.10;;;20.90;63.60;;;;;;4430161;32;20088;-68
2022/06/06 06:10:07;;;;;;;2.95;1.40;;;20.90;64.30;;;;;;4430043;32;20529;-68
2022/06/06 06:13:01;;;;;;;1.55;1.20;;;20.90;63.60;;;;;;4430332;32;20477;-68
2022/06/06 06:15:37;;;;;;;1.50;1.15;;;20.90;63.50;;;;;;4430271;32;20213;-68
2022/06/06 06:18:08;;;;;;;1.30;1.10;;;20.90;63.70;;;;;;4429586;32;20092;-68
2022/06/06 06:20:41;;;;;;;2.03;1.23;;;20.90;63.60;;;;;;4429808;32;20074;-68
2022/06/06 06:23:11;;;;;;;2.13;1.50;;;21.00;63.60;;;;;;4430279;32;20125;-68
2022/06/06 06:25:41;;;;;;;1.65;1.20;;;20.90;63.60;;;;;;4429901;32;20470;-68
2022/06/06 06:28:10;;;;;;;2.05;0.95;;;20.90;63.60;;;;;;4430059;32;20514;-69
2022/06/06 06:31:05;;;;;;;1.45;1.17;;;20.90;63.60;;;;;;4415999;32;20082;-68
2022/06/06 06:34:01;;;;;;;1.60;0.98;;;20.90;63.60;;;;;;4375000;32;20505;-68
2022/06/06 06:36:43;;;;;;;1.42;1.23;;;20.90;63.60;;;;;;4429884;32;20184;-68
2022/06/06 06:39:20;;;;;;;1.53;1.10;;;20.90;63.70;;;;;;4430141;32;20118;-68
2022/06/06 06:41:56;;;;;;;1.58;1.25;;;20.90;63.70;;;;;;4430029;32;20096;-68
2022/06/06 06:44:29;;;;;;;1.20;1.02;;;20.90;63.60;;;;;;4429422;32;20418;-68
2022/06/06 06:47:06;;;;;;;1.33;1.02;;;20.90;63.70;;;;;;4429713;32;20063;-68
2022/06/06 06:49:55;;;;;;;1.30;1.15;;;20.90;63.60;;;;;;4429654;32;20165;-68
2022/06/06 06:52:43;;;;;;;1.45;1.08;;;20.90;63.60;;;;;;4429963;32;20086;-68
2022/06/06 06:55:30;;;;;;;1.70;1.05;;;20.90;63.60;;;;;;4429509;32;20085;-68
2022/06/06 06:57:56;;;;;;;1.00;0.90;;;20.90;63.60;;;;;;4429843;32;20146;-69
2022/06/06 07:00:24;;;;;;;1.38;1.00;;;20.90;63.70;;;;;;4432647;32;20538;-68
2022/06/06 07:09:06;;;;;;;1.52;1.00;;;20.90;63.60;;;;;;4432657;32;20295;-69
2022/06/06 07:11:47;;;;;;;2.08;1.30;;;20.90;63.60;;;;;;4432610;32;20098;-68
2022/06/06 07:14:42;;;;;;;1.40;1.02;;;20.90;63.60;;;;;;4418741;32;20070;-68
2022/06/06 07:17:10;;;;;;;2.05;1.08;;;20.90;63.60;;;;;;4426739;32;20411;-68
2022/06/06 07:19:42;;;;;;;1.33;1.23;;;20.90;63.70;;;;;;4432175;32;20152;-68
2022/06/06 07:22:09;;;;;;;3.17;1.27;;;20.90;63.60;;;;;;4432572;32;20515;-69
2022/06/06 07:24:35;;;;;;;5.20;1.17;;;20.90;63.60;;;;;;4432311;32;20148;-69
2022/06/06 07:27:02;;;;;;;3.05;1.30;;;20.90;63.70;;;;;;4432000;32;20082;-70
2022/06/06 07:29:29;;;;;;;3.40;1.40;;;20.90;63.60;;;;;;4432314;32;20428;-69
2022/06/06 07:32:26;;;;;;;4.10;1.15;;;20.80;63.50;;;;;;4432193;32;20082;-70
2022/06/06 07:35:10;;;;;;;13.25;1.30;;;20.90;63.60;;;;;;4432196;32;20169;-69
2022/06/06 07:37:48;;;;;;;1.75;1.20;;;20.80;63.40;;;;;;4432043;32;20204;-69
2022/06/06 07:40:33;;;;;;;1.67;1.00;;;20.90;63.60;;;;;;4432463;32;20070;-69
2022/06/06 07:43:22;;;;;;;2.80;1.10;;;20.90;63.60;;;;;;4432461;32;20477;-69
2022/06/06 07:45:57;;;;;;;2.35;1.20;;;20.90;63.60;;;;;;4432101;32;20082;-70
2022/06/06 07:48:37;;;;;;;1.13;0.88;;;20.90;63.70;;;;;;4431921;32;20511;-69
2022/06/06 07:51:12;;;;;;;2.58;1.10;;;20.90;63.70;;;;;;4431959;32;20264;-69
2022/06/06 07:54:03;;;;;;;1.00;0.70;;;20.90;63.60;;;;;;4418520;32;20086;-69
2022/06/06 07:56:28;;;;;;;2.60;1.30;;;20.90;63.60;;;;;;4432292;32;20193;-70
2022/06/06 07:59:19;;;;;;;2.33;0.90;;;20.90;63.60;;;;;;4431634;32;20073;-69
2022/06/06 08:02:03;;;;;;;1.63;1.00;;;20.90;63.50;;;;;;4432122;32;20093;-70
2022/06/06 08:04:43;;;;;;;4.20;1.50;;;20.90;63.30;;;;;;4431874;32;20074;-69
2022/06/06 08:07:09;;;;;;;1.90;1.02;;;20.90;63.40;;;;;;4431782;32;20093;-69
2022/06/06 08:09:55;;;;;;;2.83;1.20;;;20.90;63.50;;;;;;4431612;32;20074;-69
2022/06/06 08:12:38;;;;;;;4.43;1.02;;;20.90;63.30;;;;;;4431585;32;20105;-69
2022/06/06 08:15:19;;;;;;;2.13;1.10;;;20.90;63.50;;;;;;4431356;32;20070;-70
2022/06/06 08:18:18;;;;;;;2.53;1.23;;;20.90;63.40;;;;;;4417638;32;20097;-70
2022/06/06 08:21:23;;;;;;;1.70;1.27;;;20.90;63.40;;;;;;4431343;32;20090;-69
2022/06/06 08:23:55;;;;;;;2.10;1.20;;;21.00;63.50;;;;;;4417465;32;20096;-69
2022/06/06 08:26:25;;;;;;;2.25;1.02;;;21.00;63.70;;;;;;4417766;32;20078;-70
2022/06/06 08:28:52;;;;;;;2.10;1.13;;;21.00;63.70;;;;;;4431803;32;20090;-69
2022/06/06 08:31:19;;;;;;;2.30;1.10;;;21.10;63.70;;;;;;4431399;32;20076;-68
2022/06/06 08:33:46;;;;;;;2.00;1.15;;;21.10;63.70;;;;;;4431126;32;20087;-70
2022/06/06 08:36:31;;;;;;;2.38;1.20;;;21.10;63.70;;;;;;4431008;32;20112;-69
2022/06/06 08:39:32;;;;;;;1.75;1.00;;;21.10;63.80;;;;;;4431293;32;20082;-69
2022/06/06 08:42:25;;;;;;;3.28;1.20;;;21.10;63.90;;;;;;4407319;32;20389;-69
2022/06/06 08:45:00;;;;;;;3.13;1.25;;;21.10;63.80;;;;;;4417546;32;20083;-69
2022/06/06 08:47:37;;;;;;;3.28;1.40;;;21.10;63.70;;;;;;4431266;32;20213;-69
2022/06/06 08:50:46;;;;;;;6.35;1.42;;;21.10;63.70;;;;;;4431222;32;20071;-69
2022/06/06 08:53:33;;;;;;;4.03;1.77;;;21.10;63.40;;;;;;4431398;32;20066;-69
2022/06/06 08:56:23;;;;;;;3.90;1.42;;;21.10;63.50;;;;;;4431296;32;20089;-69
2022/06/06 08:59:04;;;;;;;3.13;1.40;;;21.10;63.20;;;;;;4431107;32;20227;-69
2022/06/06 09:01:36;;;;;;;4.45;1.20;;;21.10;63.10;;;;;;4430725;32;20125;-69
2022/06/06 09:04:23;;;;;;;2.83;1.45;;;21.10;63.20;;;;;;4431065;32;20070;-69
2022/06/06 09:07:04;;;;;;;4.13;1.20;;;21.10;62.90;;;;;;4430860;32;20519;-69
2022/06/06 09:09:35;;;;;;;2.38;1.40;;;21.10;63.20;;;;;;4431232;32;20299;-69
2022/06/06 09:12:26;;;;;;;3.35;1.70;;;21.10;63.10;;;;;;4416895;32;20543;-69
2022/06/06 09:15:11;;;;;;;4.63;1.90;;;21.10;63.00;;;;;;4430721;32;20077;-70
2022/06/06 09:17:58;;;;;;;1.92;1.50;;;21.10;63.00;;;;;;4430978;32;20229;-69
2022/06/06 09:20:41;;;;;;;4.65;1.50;;;21.10;63.00;;;;;;4430691;32;20089;-69
2022/06/06 09:23:23;;;;;;;3.40;1.60;;;21.10;63.20;;;;;;4429835;32;20082;-69
2022/06/06 09:26:12;;;;;;;2.88;1.30;;;21.10;63.20;;;;;;4430612;32;20121;-69
2022/06/06 09:29:18;;;;;;;1.85;1.30;;;21.10;63.40;;;;;;4430570;32;20385;-69
2022/06/06 09:32:13;;;;;;;2.70;1.52;;;21.10;63.10;;;;;;4430389;32;20089;-69
2022/06/06 09:34:58;;;;;;;;;;;21.10;63.30;;;;;;4430742;32;20070;-69
2022/06/06 09:37:52;;;;;;;4.20;1.45;;;21.10;63.20;;;;;;4430837;32;20104;-69
2022/06/06 09:40:22;;;;;;;1.50;1.30;;;21.10;63.50;;;;;;4430326;32;20412;-69
2022/06/06 09:43:02;;;;;;;2.13;1.40;;;21.10;63.60;;;;;;4430328;32;20454;-69
2022/06/06 09:45:52;;;;;;;1.90;1.42;;;21.20;63.60;;;;;;4416510;32;20168;-69
2022/06/06 09:48:36;;;;;;;2.40;1.25;;;21.20;63.90;;;;;;4430338;32;20259;-69
2022/06/06 09:51:33;;;;;;;4.60;1.80;;;21.20;63.60;;;;;;4430183;32;20658;-69
2022/06/06 10:00:58;;;;;;;2.50;1.33;;;21.20;63.50;;;;;;4430243;32;20104;-70
2022/06/06 10:03:42;;;;;;;2.25;1.45;;;21.20;63.90;;;;;;4430085;32;20086;-69
2022/06/06 10:06:16;;;;;;;2.83;1.50;;;21.20;63.90;;;;;;4429916;32;20136;-69
2022/06/06 10:09:08;;;;;;;2.45;1.27;;;21.20;63.90;;;;;;4429907;32;20133;-69
2022/06/06 10:12:12;;;;;;;2.13;1.50;;;21.20;63.80;;;;;;4430527;32;20050;-69
2022/06/06 10:14:38;;;;;;;1.67;1.30;;;21.20;64.00;;;;;;4404490;32;20082;-69
2022/06/06 10:17:09;;;;;;;2.45;1.52;;;21.20;63.90;;;;;;4429594;32;20081;-69
2022/06/06 10:20:04;;;;;;;2.58;1.50;;;21.20;64.00;;;;;;4428109;32;20062;-70
2022/06/06 10:23:00;;;;;;;3.65;1.67;;;21.20;64.00;;;;;;4429860;32;20211;-69
2022/06/06 10:25:35;;;;;;;2.83;1.48;;;21.20;63.90;;;;;;4430156;32;20088;-69
2022/06/06 10:28:22;;;;;;;4.28;1.65;;;21.20;63.90;;;;;;4430020;32;20575;-71
2022/06/06 10:31:04;;;;;;;3.03;1.55;;;21.20;64.00;;;;;;4429217;32;20086;-71
2022/06/06 10:33:49;;;;;;;2.60;1.47;;;21.20;63.90;;;;;;4428772;32;20463;-70
2022/06/06 10:36:44;;;;;;;3.15;1.40;;;21.30;63.80;;;;;;4429695;32;20085;-70
2022/06/06 10:39:19;;;;;;;2.72;1.50;;;21.30;63.70;;;;;;4429551;32;20098;-69
2022/06/06 10:42:26;;;;;;;1.95;1.50;;;21.30;63.40;;;;;;4428495;32;20088;-70
2022/06/06 10:45:16;;;;;;;1.98;1.15;;;21.30;63.30;;;;;;4429996;32;20488;-70
2022/06/06 10:48:02;;;;;;;3.90;2.00;;;21.30;63.10;;;;;;4429595;32;20113;-70
2022/06/06 10:54:49;;;;;;;2.75;1.25;;;21.30;62.70;;;;;;4396454;32;20109;-70
2022/06/06 10:57:37;;;;;;;1.45;1.00;;;21.40;62.70;;;;;;4396953;32;20099;-71
2022/06/06 11:00:56;;;;;;;3.03;1.20;;;21.30;62.50;;;;;;4423434;32;20152;-70
2022/06/06 11:04:03;;;;;;;2.33;1.20;;;21.40;62.30;;;;;;4367096;32;20108;-70
2022/06/06 11:06:51;;;;;;;3.45;1.10;;;21.40;62.30;;;;;;4357167;32;20123;-69
2022/06/06 11:09:29;;;;;;;4.68;1.20;;;21.40;62.40;;;;;;4428910;32;20087;-70
2022/06/06 11:12:04;;;;;;;2.10;1.00;;;21.40;62.30;;;;;;4429466;32;20097;-69
2022/06/06 11:14:44;;;;;;;3.20;1.17;;;21.40;62.20;;;;;;4429369;32;20467;-69
2022/06/06 11:17:35;;;;;;;3.65;1.45;;;21.50;62.00;;;;;;4415638;32;20508;-74
2022/06/06 11:20:22;;;;;;;1.98;1.08;;;21.50;61.50;;;;;;4429017;32;20121;-69
2022/06/06 11:23:02;;;;;;;2.83;1.00;;;21.50;61.60;;;;;;4429103;32;20089;-69
2022/06/06 11:25:58;;;;;;;1.98;0.90;;;21.50;61.60;;;;;;4415424;32;20086;-69
2022/06/06 11:28:46;;;;;;;2.75;1.00;;;21.50;61.50;;;;;;4429677;32;20067;-71
2022/06/06 11:31:49;;;;;;;2.60;1.00;;;21.50;61.30;;;;;;4429387;32;20079;-69
2022/06/06 11:34:45;;;;;;;3.30;0.75;;;21.50;61.20;;;;;;4429220;32;20082;-69
2022/06/06 11:37:13;;;;;;;3.25;0.80;;;21.60;61.30;;;;;;4423489;32;20176;-70
2022/06/06 11:40:07;;;;;;;5.38;1.10;;;21.60;61.00;;;;;;4429529;32;20166;-69
2022/06/06 11:42:53;;;;;;;3.55;0.90;;;21.60;60.30;;;;;;4429229;32;20084;-70
2022/06/06 11:45:31;;;;;;;2.50;1.05;;;21.60;60.10;;;;;;4398008;32;20534;-70
2022/06/06 11:48:27;;;;;;;2.80;0.90;;;21.60;60.10;;;;;;4431998;32;20071;-70
2022/06/06 11:51:16;;;;;;;5.18;1.17;;;21.60;59.90;;;;;;4431470;32;20170;-70
2022/06/06 11:54:12;;;;;;;2.08;0.75;;;21.60;60.10;;;;;;4432377;32;20085;-70
2022/06/06 11:57:15;;;;;;;3.17;1.10;;;21.60;60.00;;;;;;4432047;32;20075;-70
2022/06/06 12:00:08;;;;;;;2.35;0.90;;;21.70;59.90;;;;;;4431940;32;20121;-70
2022/06/06 12:02:58;;;;;;;5.03;1.30;;;21.70;59.90;;;;;;4431915;32;20071;-70
2022/06/06 12:06:03;;;;;;;5.18;0.90;;;21.60;60.20;;;;;;4431985;32;20172;-69
2022/06/06 12:08:44;;;;;;;;;;;21.60;60.20;;;;;;4431060;32;20092;-70
2022/06/06 12:11:51;;;;;;;2.92;0.95;;;21.60;60.60;;;;;;4430798;32;20045;-70
2022/06/06 12:14:35;;;;;;;4.07;1.02;;;21.60;60.30;;;;;;4369263;32;20478;-69
2022/06/06 12:17:22;;;;;;;2.58;0.98;;;21.60;60.30;;;;;;4369062;32;20119;-70
2022/06/06 12:20:10;;;;;;;3.42;0.95;;;21.60;60.40;;;;;;4414802;32;20134;-71
2022/06/06 12:23:11;;;;;;;4.15;1.25;;;21.60;60.10;;;;;;4431618;32;20063;-69
2022/06/06 12:26:11;;;;;;;3.60;1.33;;;21.60;60.10;;;;;;4430808;32;20288;-70
2022/06/06 12:28:42;;;;;;;4.72;1.25;;;21.60;60.20;;;;;;4431349;32;20067;-70
2022/06/06 12:31:26;;;;;;;5.47;1.15;;;21.60;60.00;;;;;;4431461;32;20075;-70
2022/06/06 12:34:02;;;;;;;5.43;1.33;;;21.60;60.00;;;;;;4431356;32;20558;-67
2022/06/06 12:36:35;;;;;;;1.92;0.93;;;21.60;59.90;;;;;;4431453;32;20393;-70
2022/06/06 12:39:40;;;;;;;2.95;1.10;;;21.60;60.00;;;;;;4431905;32;20617;-70
2022/06/06 12:42:31;;;;;;;1.77;0.73;;;21.60;60.00;;;;;;4431018;32;20081;-70
2022/06/06 12:45:16;;;;;;;3.75;1.00;;;21.60;60.10;;;;;;4431567;32;20510;-70
2022/06/06 12:48:17;;;;;;;2.72;1.20;;;21.50;59.90;;;;;;4431163;32;20568;-71
2022/06/06 12:51:01;;;;;;;3.70;1.25;;;21.50;60.00;;;;;;4431229;32;20058;-70
2022/06/06 12:53:53;;;;;;;4.13;1.10;;;21.50;60.30;;;;;;4430811;32;20093;-70
2022/06/06 12:56:44;;;;;;;3.22;0.90;;;21.50;60.40;;;;;;4431008;32;20497;-70
2022/06/06 12:59:26;;;;;;;3.47;1.05;;;21.50;60.20;;;;;;4423570;32;20082;-70
2022/06/06 13:01:59;;;;;;;3.83;0.90;;;21.50;60.40;;;;;;4431029;32;20115;-70
2022/06/06 13:04:53;;;;;;;2.63;1.35;;;21.50;60.50;;;;;;4430923;32;20097;-70
2022/06/06 13:07:37;;;;;;;4.07;1.08;;;21.50;60.30;;;;;;4430965;32;20082;-70
2022/06/06 13:10:12;;;;;;;5.65;1.15;;;21.50;60.40;;;;;;4430802;32;20475;-70
2022/06/06 13:13:11;;;;;;;6.35;1.25;;;21.50;60.50;;;;;;4430889;32;20126;-69
2022/06/06 13:16:07;;;;;;;4.97;1.17;;;21.50;60.40;;;;;;4430099;32;20093;-68
2022/06/06 13:18:56;;;;;;;2.38;1.10;;;21.50;60.60;;;;;;4430148;32;20066;-69
2022/06/06 13:21:42;;;;;;;4.95;1.08;;;21.50;60.30;;;;;;4429309;32;20228;-69
2022/06/06 13:24:07;;;;;;;1.70;0.70;;;21.40;60.40;;;;;;4430276;32;20089;-69
2022/06/06 13:26:39;;;;;;;5.93;1.20;;;21.40;60.50;;;;;;4430256;32;20385;-70
2022/06/06 13:29:06;;;;;;;4.82;1.13;;;21.40;60.70;;;;;;4430254;32;20204;-69
2022/06/06 13:31:53;;;;;;;3.55;0.93;;;21.40;60.60;;;;;;4430417;32;20110;-69
2022/06/06 13:34:43;;;;;;;3.05;0.88;;;21.40;60.80;;;;;;4430278;32;20070;-69
2022/06/06 13:37:20;;;;;;;3.53;0.90;;;21.40;60.90;;;;;;4430566;32;20204;-68
2022/06/06 13:40:16;;;;;;;4.93;1.40;;;21.30;60.90;;;;;;4430602;32;20455;-68
2022/06/06 13:43:01;;;;;;;5.20;0.93;;;21.30;60.90;;;;;;4417307;32;20237;-69
2022/06/06 13:45:50;;;;;;;4.47;0.90;;;21.30;61.10;;;;;;4430401;32;20082;-68
2022/06/06 13:48:41;;;;;;;3.13;1.00;;;21.30;61.10;;;;;;4430265;32;20132;-69
2022/06/06 13:51:29;;;;;;;4.70;1.13;;;21.30;61.20;;;;;;4430461;32;20101;-68
2022/06/06 13:54:07;;;;;;;1.77;0.70;;;21.30;61.20;;;;;;4429986;32;20535;-69
2022/06/06 13:56:48;;;;;;;3.70;1.08;;;21.30;61.30;;;;;;4429926;32;20153;-69
2022/06/06 13:59:54;;;;;;;2.55;0.85;;;21.30;61.50;;;;;;4430238;32;20074;-69
2022/06/06 14:02:31;;;;;;;2.45;0.90;;;21.30;61.40;;;;;;4406511;32;20097;-68
2022/06/06 14:05:30;;;;;;;6.20;0.82;;;21.30;61.80;;;;;;4430184;32;20088;-69
2022/06/06 14:08:20;;;;;;;2.65;1.00;;;21.30;61.60;;;;;;4429960;32;20074;-70
2022/06/06 14:10:51;;;;;;;3.78;1.23;;;21.20;61.70;;;;;;4430355;32;20066;-68
2022/06/06 14:13:26;;;;;;;2.08;0.90;;;21.30;61.90;;;;;;4429994;32;20216;-69
2022/06/06 14:15:52;;;;;;;3.42;0.60;;;21.20;61.70;;;;;;4429814;32;20104;-69
2022/06/06 14:18:31;;;;;;;5.70;0.98;;;21.20;61.80;;;;;;4429797;32;20066;-69
2022/06/06 14:20:57;;;;;;;8.07;0.73;;;21.20;61.90;;;;;;4429702;32;20296;-69
2022/06/06 14:23:35;;;;;;;3.70;0.75;;;21.20;61.90;;;;;;4429823;32;20500;-68
2022/06/06 14:26:02;;;;;;;3.22;0.90;;;21.20;61.80;;;;;;4430276;32;20110;-68